Terminal Aerodrome Forecast
Issued by NWS Louisville, KY

Home | Current Version | Previous Version | Text Only | Print | Product List | Glossary On
Versions: 1 2 3 4 5 6 7 8 9 10 11 12 13 14 15 16 17 18 19 20 21 22
000
FTUS43 KLMK 152300
TAFBWG
TAF
KBWG 152338Z 1600/1624 18010KT P6SM VCSH BKN020
     FM160200 19010KT P6SM VCSH BKN015 WS018/21040KT
      TEMPO 1603/1607 BKN009
     FM160700 21010KT 6SM -SHRA SCT015 BKN035
     FM160900 24012G20KT P6SM BKN015
     FM161800 25010G22KT P6SM BKN022=

USA.gov is the U.S. government's official web portal to all federal, state and local government web resources and services.